createdAt,value
2023-05-22T00:01:04.829Z,97822.03
2023-05-22T00:03:31.400Z,97829.38
2023-05-22T00:05:58.854Z,97816.72
2023-05-22T00:08:29.816Z,97821.56
2023-05-22T00:10:56.659Z,97822.56
2023-05-22T00:13:23.217Z,97816.91
2023-05-22T00:15:49.842Z,97816.88
2023-05-22T00:18:16.595Z,97817.06
2023-05-22T00:20:46.303Z,97805.53
2023-05-22T00:23:15.543Z,97813.25
2023-05-22T00:25:42.430Z,97816.53
2023-05-22T00:28:09.047Z,97820.75
2023-05-22T00:30:37.325Z,97809.84
2023-05-22T00:33:04.195Z,97815.56
2023-05-22T00:35:30.745Z,97817.69
2023-05-22T00:37:57.586Z,97813.31
2023-05-22T00:40:24.131Z,97814.06
2023-05-22T00:42:50.606Z,97811.09
2023-05-22T00:45:17.231Z,97815.38
2023-05-22T00:47:44.841Z,97817.59
2023-05-22T00:50:12.345Z,97816.63
2023-05-22T00:52:42.662Z,97817.63
2023-05-22T00:55:10.791Z,97806.19
2023-05-22T00:57:42.276Z,97807.53
2023-05-22T01:00:13.488Z,97815.91
2023-05-22T01:02:42.988Z,97805.81
2023-05-22T01:05:13.186Z,97817.94
2023-05-22T01:07:40.280Z,97813.19
2023-05-22T01:10:07.630Z,97818.88
2023-05-22T01:12:52.895Z,97820.09
2023-05-22T01:15:46.574Z,97818.97
2023-05-22T01:18:25.219Z,97821.16
2023-05-22T01:21:06.229Z,97783.44
2023-05-22T01:23:57.540Z,97821.78
2023-05-22T01:26:36.156Z,97818.84
2023-05-22T01:29:15.351Z,97788.63
2023-05-22T01:31:43.694Z,97814.66
2023-05-22T01:34:14.633Z,97817.13
2023-05-22T01:36:42.639Z,97793.41
2023-05-22T01:39:09.626Z,97819.00
2023-05-22T01:41:36.242Z,97817.44
2023-05-22T01:44:03.691Z,97821.25
2023-05-22T01:46:31.378Z,97807.75
2023-05-22T01:48:59.087Z,97815.50
2023-05-22T01:51:39.653Z,97816.19
2023-05-22T01:54:26.950Z,97823.28
2023-05-22T01:57:00.053Z,97810.94
2023-05-22T01:59:36.233Z,97818.84
2023-05-22T02:02:06.339Z,97811.59
2023-05-22T02:04:36.736Z,97821.00
2023-05-22T02:07:03.981Z,97819.91
2023-05-22T02:09:31.177Z,97820.75
2023-05-22T02:11:59.378Z,97817.34
2023-05-22T02:14:29.336Z,97822.31
2023-05-22T02:16:56.726Z,97823.16
2023-05-22T02:19:24.156Z,97813.19
2023-05-22T02:21:50.759Z,97824.34
2023-05-22T02:24:17.298Z,97817.63
2023-05-22T02:26:44.295Z,97809.28
2023-05-22T02:29:10.790Z,97811.97
2023-05-22T02:31:37.312Z,97801.50
2023-05-22T02:34:05.377Z,97805.69
2023-05-22T02:36:32.324Z,97817.13
2023-05-22T02:38:59.846Z,97757.06
2023-05-22T02:41:26.467Z,97815.44
2023-05-22T02:43:53.158Z,97758.31
2023-05-22T02:46:19.771Z,97809.19
2023-05-22T02:48:46.308Z,97821.56
2023-05-22T02:51:12.765Z,97814.44
2023-05-22T02:53:41.188Z,97813.19
2023-05-22T02:56:08.737Z,97815.31
2023-05-22T02:58:35.307Z,97814.41
2023-05-22T03:01:03.424Z,97823.97
2023-05-22T03:03:31.389Z,97814.81
2023-05-22T03:05:58.485Z,97814.69
2023-05-22T03:08:28.242Z,97823.16
2023-05-22T03:10:56.573Z,97819.31
2023-05-22T03:13:23.406Z,97817.03
2023-05-22T03:15:49.944Z,97818.50
2023-05-22T03:18:18.042Z,97818.69
2023-05-22T03:20:45.366Z,97819.22
2023-05-22T03:23:13.125Z,97819.22
2023-05-22T03:25:39.760Z,97817.66
2023-05-22T03:28:06.416Z,97825.69
2023-05-22T03:30:37.314Z,97808.72
2023-05-22T03:33:19.491Z,97825.59
2023-05-22T03:35:46.127Z,97819.44
2023-05-22T03:38:12.702Z,97796.00
2023-05-22T03:40:40.065Z,97815.25
2023-05-22T03:43:07.885Z,97820.88
2023-05-22T03:45:34.475Z,97791.94
2023-05-22T03:48:02.620Z,97815.38
2023-05-22T03:50:29.454Z,97796.25
2023-05-22T03:52:55.953Z,97814.44
2023-05-22T03:55:22.410Z,97814.44
2023-05-22T03:57:48.908Z,97818.19
2023-05-22T04:00:19.524Z,97817.50
2023-05-22T04:02:46.749Z,97811.81
2023-05-22T04:05:13.499Z,97817.19
2023-05-22T04:07:40.066Z,97813.47
2023-05-22T04:10:07.080Z,97814.00
2023-05-22T04:12:33.856Z,97816.69
2023-05-22T04:15:00.422Z,97817.50
2023-05-22T04:17:32.470Z,97807.09
2023-05-22T04:20:00.313Z,97819.38
2023-05-22T04:22:27.508Z,97812.97
2023-05-22T04:24:53.996Z,97818.69
2023-05-22T04:27:22.506Z,97817.25
2023-05-22T04:29:50.365Z,97821.00
2023-05-22T04:32:21.788Z,97825.13
2023-05-22T04:34:51.036Z,97828.56
2023-05-22T04:37:20.046Z,97828.97
2023-05-22T04:39:47.090Z,97829.25
2023-05-22T04:42:14.488Z,97834.66
2023-05-22T04:44:41.896Z,97827.75
2023-05-22T04:47:12.060Z,97823.84
2023-05-22T04:49:39.189Z,97832.56
2023-05-22T04:52:07.128Z,97800.09
2023-05-22T04:54:34.464Z,97818.44
2023-05-22T04:57:03.087Z,97829.19
2023-05-22T04:59:29.608Z,97831.84
2023-05-22T05:01:56.093Z,97733.94
2023-05-22T05:04:24.498Z,97828.59
2023-05-22T05:06:52.785Z,97831.72
2023-05-22T05:09:19.278Z,97830.22
2023-05-22T05:11:45.784Z,97821.22
2023-05-22T05:14:12.378Z,97830.97
2023-05-22T05:16:38.916Z,97837.69
2023-05-22T05:19:06.616Z,97837.44
2023-05-22T05:21:33.350Z,97833.13
2023-05-22T05:24:00.942Z,97824.56
2023-05-22T05:26:27.617Z,97835.09
2023-05-22T05:28:56.451Z,97839.53
2023-05-22T05:31:23.373Z,97841.50
2023-05-22T05:34:06.229Z,97840.44
2023-05-22T05:36:52.429Z,97838.84
2023-05-22T05:39:20.560Z,97834.47
2023-05-22T05:41:47.768Z,97838.13
2023-05-22T05:44:15.657Z,97841.00
2023-05-22T05:46:42.448Z,97844.63
2023-05-22T05:49:10.271Z,97848.22
2023-05-22T05:51:38.660Z,97841.38
2023-05-22T05:54:06.138Z,97837.19
2023-05-22T05:56:32.942Z,97842.38
2023-05-22T05:59:00.148Z,97848.34
2023-05-22T06:01:35.113Z,97837.84
2023-05-22T06:04:03.419Z,97822.84
2023-05-22T06:06:39.276Z,97822.50
2023-05-22T06:09:24.655Z,97836.56
2023-05-22T06:12:06.907Z,97761.75
2023-05-22T06:14:33.892Z,97850.94
2023-05-22T06:17:00.436Z,97846.53
2023-05-22T06:19:27.172Z,97849.06
2023-05-22T06:21:55.240Z,97844.41
2023-05-22T06:24:22.177Z,97845.75
2023-05-22T06:26:49.678Z,97849.09
2023-05-22T06:29:16.163Z,97843.19
2023-05-22T06:31:43.256Z,97838.06
2023-05-22T06:34:10.856Z,97837.03
2023-05-22T06:36:37.403Z,97834.97
2023-05-22T06:39:04.845Z,97838.06
2023-05-22T06:41:58.247Z,97833.66
2023-05-22T06:44:25.708Z,97833.38
2023-05-22T06:46:55.400Z,97832.09
2023-05-22T06:49:24.559Z,97835.31
2023-05-22T06:51:53.972Z,97828.75
2023-05-22T06:54:21.428Z,97835.31
2023-05-22T06:56:51.141Z,97840.00
2023-05-22T06:59:18.102Z,97840.31
2023-05-22T07:02:03.141Z,97838.91
2023-05-22T07:04:53.550Z,97845.56
2023-05-22T07:07:31.128Z,97841.84
2023-05-22T07:09:57.707Z,97855.00
2023-05-22T07:12:26.201Z,97850.59
2023-05-22T07:14:54.490Z,97850.59
2023-05-22T07:17:23.495Z,97848.75
2023-05-22T07:19:50.902Z,97853.63
2023-05-22T07:22:17.826Z,97854.94
2023-05-22T07:24:47.205Z,97855.56
2023-05-22T07:27:15.756Z,97851.56
2023-05-22T07:29:42.382Z,97850.03
2023-05-22T07:32:09.194Z,97857.69
2023-05-22T07:34:36.478Z,97847.59
2023-05-22T07:37:08.505Z,97859.88
2023-05-22T07:39:35.482Z,97857.09
2023-05-22T07:42:02.950Z,97863.78
2023-05-22T07:44:31.707Z,97858.00
2023-05-22T07:46:59.421Z,97856.72
2023-05-22T07:49:28.233Z,97859.09
2023-05-22T07:51:54.794Z,97857.97
2023-05-22T07:54:24.131Z,97860.94
2023-05-22T07:56:52.510Z,97859.22
2023-05-22T07:59:21.588Z,97857.09
2023-05-22T08:01:48.069Z,97860.72
2023-05-22T08:04:14.796Z,97863.31
2023-05-22T08:06:41.613Z,97865.25
2023-05-22T08:09:08.060Z,97860.88
2023-05-22T08:11:34.976Z,97866.38
2023-05-22T08:14:01.654Z,97860.91
2023-05-22T08:16:28.153Z,97865.78
2023-05-22T08:18:54.695Z,97864.19
2023-05-22T08:21:21.266Z,97870.88
2023-05-22T08:23:47.729Z,97866.75
2023-05-22T08:26:15.250Z,97855.22
2023-05-22T08:28:44.712Z,97857.66
2023-05-22T08:31:11.912Z,97865.56
2023-05-22T08:33:38.592Z,97863.16
2023-05-22T08:36:05.891Z,97858.66
2023-05-22T08:38:32.606Z,97853.69
2023-05-22T08:40:59.203Z,97860.59
2023-05-22T08:43:25.782Z,97856.72
2023-05-22T08:45:57.783Z,97854.88
2023-05-22T08:48:29.207Z,97850.00
2023-05-22T08:51:02.416Z,97857.41
2023-05-22T08:53:31.164Z,97848.84
2023-05-22T08:55:57.778Z,97848.50
2023-05-22T08:58:24.600Z,97849.19
2023-05-22T09:00:52.495Z,97833.03
2023-05-22T09:03:21.405Z,97837.41
2023-05-22T09:05:49.341Z,97847.38
2023-05-22T09:08:20.771Z,97836.91
2023-05-22T09:10:47.868Z,97846.25
2023-05-22T09:13:24.361Z,97841.97
2023-05-22T09:15:50.901Z,97840.03
2023-05-22T09:18:17.349Z,97839.22
2023-05-22T09:20:43.849Z,97842.09
2023-05-22T09:23:21.557Z,97847.47
2023-05-22T09:25:48.075Z,97846.25
2023-05-22T09:28:14.564Z,97842.44
2023-05-22T09:30:42.459Z,97832.00
2023-05-22T09:33:12.844Z,97837.06
2023-05-22T09:35:39.722Z,97836.50
2023-05-22T09:38:06.466Z,97844.06
2023-05-22T09:40:35.036Z,97835.88
2023-05-22T09:43:06.479Z,97825.88
2023-05-22T09:45:35.090Z,97837.09
2023-05-22T09:48:05.670Z,97834.47
2023-05-22T09:50:32.648Z,97829.41
2023-05-22T09:53:04.017Z,97830.47
2023-05-22T09:55:34.968Z,97822.31
2023-05-22T09:58:04.837Z,97761.97
2023-05-22T10:00:34.213Z,97816.03
2023-05-22T10:03:12.500Z,97816.34
2023-05-22T10:05:43.592Z,97812.88
2023-05-22T10:08:24.369Z,97818.34
2023-05-22T10:10:52.826Z,97814.72
2023-05-22T10:13:20.786Z,97800.44
2023-05-22T10:15:49.064Z,97812.03
2023-05-22T10:18:16.933Z,97808.31
2023-05-22T10:20:44.585Z,97808.59
2023-05-22T10:23:12.252Z,97802.63
2023-05-22T10:25:39.053Z,97806.00
2023-05-22T10:28:06.916Z,97796.84
2023-05-22T10:30:43.249Z,97801.63
2023-05-22T10:33:35.279Z,97801.13
2023-05-22T10:36:05.164Z,97802.81
2023-05-22T10:38:54.129Z,97801.09
2023-05-22T10:41:22.376Z,97801.81
2023-05-22T10:43:49.803Z,97795.19
2023-05-22T10:46:17.005Z,97799.88
2023-05-22T10:48:48.493Z,97801.53
2023-05-22T10:51:20.575Z,97790.19
2023-05-22T10:53:53.256Z,97787.63
2023-05-22T10:56:20.412Z,97790.78
2023-05-22T10:58:59.155Z,97796.09
2023-05-22T11:01:26.432Z,97787.66
2023-05-22T11:04:01.156Z,97794.22
2023-05-22T11:06:41.375Z,97793.31
2023-05-22T11:09:20.117Z,97786.03
2023-05-22T11:11:47.377Z,97789.06
2023-05-22T11:14:19.588Z,97779.47
2023-05-22T11:16:46.147Z,97778.56
2023-05-22T11:19:23.486Z,97783.47
2023-05-22T11:21:50.791Z,97768.06
2023-05-22T11:24:18.080Z,97755.19
2023-05-22T11:26:44.712Z,97774.41
2023-05-22T11:29:11.206Z,97769.22
2023-05-22T11:31:38.585Z,97703.84
2023-05-22T11:34:05.189Z,97773.38
2023-05-22T11:36:32.089Z,97780.22
2023-05-22T11:39:00.009Z,97776.16
2023-05-22T11:41:33.178Z,97766.81
2023-05-22T11:44:01.474Z,97755.94
2023-05-22T11:46:28.069Z,97766.84
2023-05-22T11:48:54.801Z,97762.00
2023-05-22T11:51:21.756Z,97762.69
2023-05-22T11:53:48.340Z,97765.78
2023-05-22T11:56:14.844Z,97744.06
2023-05-22T11:58:41.488Z,97753.66
2023-05-22T12:01:07.895Z,97757.66
2023-05-22T12:03:34.455Z,97751.25
2023-05-22T12:06:01.856Z,97757.88
2023-05-22T12:08:28.682Z,97749.09
2023-05-22T12:10:55.180Z,97749.22
2023-05-22T12:13:29.128Z,97748.25
2023-05-22T12:15:59.995Z,97719.03
2023-05-22T12:18:27.558Z,97747.06
2023-05-22T12:20:56.974Z,97735.09
2023-05-22T12:23:28.319Z,97717.41
2023-05-22T12:25:58.585Z,97740.97
2023-05-22T12:28:25.653Z,97737.56
2023-05-22T12:30:53.610Z,97743.75
2023-05-22T12:33:20.603Z,97731.81
2023-05-22T12:35:50.882Z,97732.31
2023-05-22T12:38:20.909Z,97736.03
2023-05-22T12:40:47.374Z,97734.50
2023-05-22T12:43:13.901Z,97731.53
2023-05-22T12:45:43.078Z,97731.63
2023-05-22T12:48:09.785Z,97728.72
2023-05-22T12:50:36.313Z,97741.69
2023-05-22T12:53:02.904Z,97732.66
2023-05-22T12:55:29.345Z,97738.81
2023-05-22T12:57:55.775Z,97739.66
2023-05-22T13:00:25.358Z,97737.13
2023-05-22T13:02:52.062Z,97732.09
2023-05-22T13:05:18.786Z,97741.19
2023-05-22T13:07:45.369Z,97727.56
2023-05-22T13:10:11.929Z,97728.91
2023-05-22T13:12:38.468Z,97722.59
2023-05-22T13:15:05.515Z,97721.81
2023-05-22T13:17:32.358Z,97723.19
2023-05-22T13:19:58.896Z,97719.13
2023-05-22T13:22:25.973Z,97722.06
2023-05-22T13:24:52.475Z,97723.44
2023-05-22T13:27:19.053Z,97719.09
2023-05-22T13:29:45.585Z,97714.91
2023-05-22T13:32:13.581Z,97699.66
2023-05-22T13:34:43.223Z,97707.91
2023-05-22T13:37:10.028Z,97712.22
2023-05-22T13:39:36.893Z,97714.13
2023-05-22T13:42:03.687Z,97706.34
2023-05-22T13:44:30.121Z,97705.81
2023-05-22T13:46:56.616Z,97706.03
2023-05-22T13:49:23.140Z,97709.38
2023-05-22T13:51:49.577Z,97704.69
2023-05-22T13:54:16.121Z,97705.88
2023-05-22T13:56:42.597Z,97696.19
2023-05-22T13:59:09.477Z,97700.41
2023-05-22T14:01:36.188Z,97695.75
2023-05-22T14:04:03.236Z,97684.88
2023-05-22T14:06:29.722Z,97701.19
2023-05-22T14:08:56.228Z,97708.81
2023-05-22T14:11:23.068Z,97707.66
2023-05-22T14:13:49.966Z,97712.81
2023-05-22T14:16:16.537Z,97716.13
2023-05-22T14:18:43.001Z,97734.19
2023-05-22T14:21:09.442Z,97741.47
2023-05-22T14:23:35.918Z,97748.13
2023-05-22T14:26:02.383Z,97753.28
2023-05-22T14:28:28.865Z,97758.38
2023-05-22T14:30:55.920Z,97769.47
2023-05-22T14:33:22.426Z,97773.25
2023-05-22T14:35:51.037Z,97770.97
2023-05-22T14:38:17.489Z,97768.09
2023-05-22T14:40:43.977Z,97775.47
2023-05-22T14:43:10.429Z,97774.03
2023-05-22T14:45:36.904Z,97787.94
2023-05-22T14:48:03.856Z,97805.44
2023-05-22T14:50:30.342Z,97813.69
2023-05-22T14:52:56.856Z,97824.22
2023-05-22T14:55:27.535Z,97820.53
2023-05-22T14:57:54.420Z,97805.47
2023-05-22T15:00:20.998Z,97817.25
2023-05-22T15:02:47.610Z,97819.56
2023-05-22T15:05:14.150Z,97815.03
2023-05-22T15:07:44.627Z,97832.31
2023-05-22T15:10:13.137Z,97844.25
2023-05-22T15:12:39.694Z,97849.47
2023-05-22T15:15:06.704Z,97865.00
2023-05-22T15:17:33.269Z,97817.53
2023-05-22T15:19:59.729Z,97834.09
2023-05-22T15:22:26.245Z,97824.13
2023-05-22T15:25:06.947Z,97809.19
2023-05-22T15:27:35.030Z,97807.94
2023-05-22T15:30:02.684Z,97809.19
2023-05-22T15:32:30.606Z,97810.56
2023-05-22T15:34:57.368Z,97813.09
2023-05-22T15:37:23.901Z,97805.84
2023-05-22T15:39:50.454Z,97812.38
2023-05-22T15:42:16.957Z,97799.03
2023-05-22T15:44:43.550Z,97804.94
2023-05-22T15:47:09.992Z,97794.78
2023-05-22T15:49:36.557Z,97796.84
2023-05-22T15:52:03.053Z,97802.19
2023-05-22T15:54:29.504Z,97797.63
2023-05-22T15:56:56.109Z,97805.13
2023-05-22T15:59:22.554Z,97796.22
2023-05-22T16:01:49.203Z,97796.59
2023-05-22T16:04:15.839Z,97804.25
2023-05-22T16:06:42.370Z,97806.28
2023-05-22T16:09:09.933Z,97808.25
2023-05-22T16:11:37.785Z,97805.16
2023-05-22T16:14:04.763Z,97779.25
2023-05-22T16:16:32.340Z,97801.59
2023-05-22T16:18:58.907Z,97796.78
2023-05-22T16:21:25.398Z,97792.19
2023-05-22T16:23:52.222Z,97787.75
2023-05-22T16:26:18.680Z,97794.44
2023-05-22T16:28:45.305Z,97792.78
2023-05-22T16:31:12.957Z,97796.88
2023-05-22T16:33:39.537Z,97797.22
2023-05-22T16:36:06.340Z,97802.25
2023-05-22T16:38:32.800Z,97804.84
2023-05-22T16:40:59.357Z,97784.38
2023-05-22T16:43:26.089Z,97812.63
2023-05-22T16:45:52.572Z,97823.09
2023-05-22T16:48:19.186Z,97824.84
2023-05-22T16:50:46.754Z,97825.22
2023-05-22T16:53:14.019Z,97827.69
2023-05-22T16:55:40.843Z,97827.53
2023-05-22T16:58:08.989Z,97828.28
2023-05-22T17:00:36.709Z,97811.31
2023-05-22T17:03:03.516Z,97815.19
2023-05-22T17:05:30.271Z,97818.53
2023-05-22T17:07:56.806Z,97826.69
2023-05-22T17:10:23.692Z,97826.69
2023-05-22T17:12:50.320Z,97826.94
2023-05-22T17:15:16.796Z,97827.19
2023-05-22T17:17:43.265Z,97826.41
2023-05-22T17:20:10.261Z,97818.69
2023-05-22T17:22:38.249Z,97828.03
2023-05-22T17:25:06.133Z,97824.03
2023-05-22T17:27:36.016Z,97818.38
2023-05-22T17:30:03.365Z,97798.50
2023-05-22T17:32:29.917Z,97823.63
2023-05-22T17:34:56.504Z,97816.34
2023-05-22T17:37:22.969Z,97830.72
2023-05-22T17:39:49.445Z,97833.31
2023-05-22T17:42:15.911Z,97837.28
2023-05-22T17:44:42.402Z,97833.16
2023-05-22T17:47:08.980Z,97832.84
2023-05-22T17:49:37.105Z,97822.44
2023-05-22T17:52:03.584Z,97833.19
2023-05-22T17:54:34.567Z,97827.19
2023-05-22T17:57:03.856Z,97826.97
2023-05-22T17:59:33.373Z,97834.88
2023-05-22T18:01:59.924Z,97831.72
2023-05-22T18:04:26.502Z,97831.16
2023-05-22T18:06:53.001Z,97834.38
2023-05-22T18:09:19.516Z,97827.84
2023-05-22T18:11:46.126Z,97829.44
2023-05-22T18:14:12.647Z,97827.72
2023-05-22T18:16:39.229Z,97822.59
2023-05-22T18:19:05.842Z,97818.97
2023-05-22T18:21:32.341Z,97824.88
2023-05-22T18:23:58.985Z,97823.13
2023-05-22T18:26:26.704Z,97805.41
2023-05-22T18:28:53.181Z,97835.41
2023-05-22T18:31:19.871Z,97839.44
2023-05-22T18:33:46.642Z,97845.03
2023-05-22T18:36:13.381Z,97836.19
2023-05-22T18:38:39.858Z,97835.69
2023-05-22T18:41:06.718Z,97832.38
2023-05-22T18:43:33.393Z,97828.69
2023-05-22T18:45:59.867Z,97843.72
2023-05-22T18:48:27.297Z,97832.19
2023-05-22T18:50:56.657Z,97847.41
2023-05-22T18:53:25.045Z,97829.00
2023-05-22T18:55:52.319Z,97838.56
2023-05-22T18:58:18.889Z,97756.38
2023-05-22T19:00:45.685Z,97849.09
2023-05-22T19:03:12.673Z,97850.59
2023-05-22T19:05:39.743Z,97833.59
2023-05-22T19:08:06.395Z,97838.53
2023-05-22T19:10:33.103Z,97842.81
2023-05-22T19:12:59.716Z,97841.66
2023-05-22T19:15:26.338Z,97818.44
2023-05-22T19:17:53.009Z,97806.34
2023-05-22T19:20:19.586Z,97843.75
2023-05-22T19:22:46.289Z,97855.41
2023-05-22T19:25:12.876Z,97852.06
2023-05-22T19:27:39.626Z,97851.97
2023-05-22T19:30:07.123Z,97864.03
2023-05-22T19:32:33.869Z,97858.34
2023-05-22T19:35:00.445Z,97868.59
2023-05-22T19:37:26.924Z,97868.81
2023-05-22T19:39:54.268Z,97866.75
2023-05-22T19:42:20.790Z,97868.97
2023-05-22T19:44:47.304Z,97782.84
2023-05-22T19:47:13.921Z,97858.72
2023-05-22T19:49:40.468Z,97880.84
2023-05-22T19:52:06.910Z,97875.13
2023-05-22T19:54:35.637Z,97858.31
2023-05-22T19:57:03.013Z,97834.69
2023-05-22T19:59:29.487Z,97899.19
2023-05-22T20:01:56.163Z,97900.59
2023-05-22T20:04:23.108Z,97912.69
2023-05-22T20:06:49.593Z,97890.06
2023-05-22T20:09:16.769Z,97925.94
2023-05-22T20:11:43.273Z,97930.16
2023-05-22T20:14:11.660Z,97939.44
2023-05-22T20:16:38.304Z,97944.72
2023-05-22T20:19:04.841Z,97944.66
2023-05-22T20:21:32.003Z,97950.06
2023-05-22T20:23:58.552Z,97953.25
2023-05-22T20:26:25.056Z,97930.72
2023-05-22T20:28:51.993Z,97962.44
2023-05-22T20:31:18.619Z,97976.03
2023-05-22T20:33:45.358Z,97963.66
2023-05-22T20:36:14.836Z,97967.91
2023-05-22T20:38:42.596Z,97902.75
2023-05-22T20:41:10.006Z,97945.69
2023-05-22T20:43:36.598Z,97978.00
2023-05-22T20:46:03.213Z,97989.66
2023-05-22T20:48:29.791Z,97993.88
2023-05-22T20:50:56.324Z,98002.03
2023-05-22T20:53:22.861Z,97994.06
2023-05-22T20:55:49.335Z,98006.31
2023-05-22T20:58:16.500Z,98005.69
2023-05-22T21:00:43.128Z,98008.22
2023-05-22T21:03:09.744Z,98001.13
2023-05-22T21:05:36.647Z,98006.03
2023-05-22T21:08:03.193Z,98011.34
2023-05-22T21:10:29.690Z,98014.81
2023-05-22T21:12:56.158Z,98019.94
2023-05-22T21:15:22.663Z,98014.25
2023-05-22T21:17:50.419Z,98017.00
2023-05-22T21:20:17.089Z,98019.38
2023-05-22T21:22:43.578Z,98011.03
2023-05-22T21:25:10.088Z,98010.19
2023-05-22T21:27:37.587Z,98013.94
2023-05-22T21:30:04.481Z,98016.91
2023-05-22T21:32:31.013Z,98031.28
2023-05-22T21:34:57.548Z,98027.72
2023-05-22T21:37:24.275Z,98028.53
2023-05-22T21:39:50.727Z,98036.59
2023-05-22T21:42:17.645Z,98035.53
2023-05-22T21:44:44.203Z,98026.91
2023-05-22T21:47:10.926Z,98004.28
2023-05-22T21:49:39.568Z,98043.06
2023-05-22T21:52:06.477Z,98047.38
2023-05-22T21:54:32.932Z,98047.94
2023-05-22T21:56:59.535Z,98040.88
2023-05-22T21:59:26.153Z,98042.53
2023-05-22T22:01:52.701Z,98039.25
2023-05-22T22:04:19.225Z,98044.41
2023-05-22T22:06:45.686Z,98041.50
2023-05-22T22:09:12.273Z,98042.88
2023-05-22T22:11:38.822Z,98031.81
2023-05-22T22:14:05.466Z,98018.44
2023-05-22T22:16:35.822Z,98018.75
2023-05-22T22:19:03.293Z,98040.56
2023-05-22T22:21:30.281Z,98047.31
2023-05-22T22:23:56.744Z,98030.31
2023-05-22T22:26:23.272Z,98049.25
2023-05-22T22:28:49.776Z,98034.22
2023-05-22T22:31:16.976Z,98043.31
2023-05-22T22:33:43.500Z,98042.78
2023-05-22T22:36:10.025Z,98031.97
2023-05-22T22:38:36.836Z,98040.38
2023-05-22T22:41:04.774Z,98037.47
2023-05-22T22:43:31.389Z,98042.09
2023-05-22T22:45:57.900Z,98035.09
2023-05-22T22:48:24.509Z,98048.00
2023-05-22T22:50:52.333Z,98018.16
2023-05-22T22:53:19.194Z,98044.56
2023-05-22T22:55:47.271Z,98058.53
2023-05-22T22:58:13.959Z,98056.91
2023-05-22T23:00:40.413Z,98065.28
2023-05-22T23:03:07.046Z,98064.47
2023-05-22T23:05:33.596Z,98059.59
2023-05-22T23:08:01.918Z,98063.63
2023-05-22T23:10:28.933Z,98053.66
2023-05-22T23:12:55.872Z,98065.25
2023-05-22T23:15:22.928Z,98070.66
2023-05-22T23:17:51.706Z,98075.81
2023-05-22T23:20:18.607Z,98070.69
2023-05-22T23:22:45.239Z,98072.03
2023-05-22T23:25:11.850Z,98078.25
2023-05-22T23:27:39.139Z,98079.59
2023-05-22T23:30:07.885Z,98082.81
2023-05-22T23:32:34.441Z,98070.97
2023-05-22T23:35:00.887Z,98060.47
2023-05-22T23:37:27.328Z,98068.00
2023-05-22T23:39:54.365Z,98069.06
2023-05-22T23:42:20.862Z,98076.38
2023-05-22T23:44:47.412Z,98075.78
2023-05-22T23:47:13.995Z,98023.38
2023-05-22T23:49:40.404Z,98083.00
2023-05-22T23:52:08.001Z,98078.97
2023-05-22T23:54:34.431Z,98065.53
2023-05-22T23:57:01.138Z,98079.84
2023-05-22T23:59:27.619Z,98073.34
